Pomfret Landing, Connecticut
Current Conditions -  °F | °C
As of 10:52 PM on Friday 31 Oct 2014 (Local Time) from KIJD Reporting Station
Overcast Overcast  
Wind Chill: 44°   Ceiling: 4600
Heat Index: 48°   Visibility: 10mi
Dew Point: 38°   Wind: 8mph
Humidity: 68%   Direction: 60°ENE
Pressure: 29.95"   Gusts: NA
Location:  41.869°N, 71.9903°W
Report Text: KIJD 010252Z AUTO 06007KT 10SM BKN046 OVC060 09/03 A2995 RMK AO2 SLP142 60000 T00890033 56008
Loading
Personal Weather Stations






























Interactive Weather Map
Tropical Storm Tracking
New forecast layout! Learn more

10-Day Weather Forecast

Advertisements
Track Severe Weather on mobile